Time;durP1;ratioP1;P1;durP2;ratioP2;P2;SDS_P1;SDS_P2;PMS_P1;PMS_P2;Temp;Humidity;BMP_temperature;BMP_pressure;BME280_temperature;BME280_humidity;BME280_pressure;Samples;Min_cycle;Max_cycle;Signal;HPM_P1;HPM_P2
2022/07/20 00:02:21;;;;;;;5.05;3.28;;;24.40;56.20;;;;;;5015337;28;20515;-80
2022/07/20 00:04:49;;;;;;;6.40;3.40;;;24.30;56.60;;;;;;4982380;28;20374;-80
2022/07/20 00:07:16;;;;;;;7.60;3.47;;;24.20;56.90;;;;;;5010621;28;20049;-76
2022/07/20 00:12:29;;;;;;;17.92;10.65;;;24.10;57.20;;;;;;5018316;28;20164;-76
2022/07/20 00:14:55;;;;;;;15.23;10.82;;;24.10;57.40;;;;;;5018294;28;20416;-80
2022/07/20 00:17:21;;;;;;;7.93;5.72;;;24.00;57.40;;;;;;5016526;28;20107;-80
2022/07/20 00:19:47;;;;;;;8.00;5.65;;;23.90;57.60;;;;;;4970005;28;20046;-80
2022/07/20 00:22:12;;;;;;;10.15;4.45;;;23.90;57.90;;;;;;5001096;28;20050;-79
2022/07/20 00:24:38;;;;;;;7.95;4.32;;;23.80;58.00;;;;;;4992452;28;20046;-75
2022/07/20 00:27:04;;;;;;;7.00;3.90;;;23.80;58.10;;;;;;4986705;28;20041;-75
2022/07/20 00:29:30;;;;;;;5.53;3.65;;;23.70;58.30;;;;;;5011246;28;20085;-75
2022/07/20 00:31:56;;;;;;;10.30;3.97;;;23.70;58.50;;;;;;4992975;28;20146;-75
2022/07/20 00:34:22;;;;;;;7.63;3.85;;;23.60;58.40;;;;;;4997112;28;20053;-75
2022/07/20 00:36:50;;;;;;;5.95;3.72;;;23.50;58.50;;;;;;5010055;28;20056;-75
2022/07/20 00:39:16;;;;;;;7.20;4.03;;;23.50;58.60;;;;;;5013297;28;20049;-75
2022/07/20 00:41:42;;;;;;;7.32;3.30;;;23.40;58.90;;;;;;5007180;28;20045;-75
2022/07/20 00:44:10;;;;;;;6.57;3.72;;;23.40;59.00;;;;;;5005348;28;20096;-76
2022/07/20 00:46:41;;;;;;;6.95;4.03;;;23.30;59.10;;;;;;5007931;28;20042;-75
2022/07/20 00:49:09;;;;;;;5.05;3.42;;;23.20;59.40;;;;;;5009635;28;20041;-76
2022/07/20 00:51:36;;;;;;;8.35;4.18;;;23.20;59.60;;;;;;5011278;28;20306;-75
2022/07/20 00:54:04;;;;;;;6.65;3.55;;;23.20;59.50;;;;;;4975473;28;20048;-76
2022/07/20 00:56:29;;;;;;;4.95;3.15;;;23.10;59.80;;;;;;4999607;28;20045;-76
2022/07/20 00:58:55;;;;;;;6.43;4.20;;;23.00;60.10;;;;;;4979642;28;20163;-76
2022/07/20 01:01:21;;;;;;;5.20;3.47;;;23.00;60.40;;;;;;5001503;28;20050;-76
2022/07/20 01:03:47;;;;;;;6.30;3.53;;;22.90;60.30;;;;;;4997646;28;20040;-76
2022/07/20 01:06:13;;;;;;;5.00;3.10;;;22.90;60.70;;;;;;5014214;28;20060;-76
2022/07/20 01:08:39;;;;;;;8.18;3.90;;;22.90;60.90;;;;;;5015497;28;20045;-81
2022/07/20 01:11:05;;;;;;;6.75;4.05;;;22.80;61.10;;;;;;5011737;28;20329;-80
2022/07/20 01:13:31;;;;;;;5.53;3.75;;;22.80;61.30;;;;;;4994320;28;20701;-81
2022/07/20 01:16:01;;;;;;;6.60;4.03;;;22.80;61.40;;;;;;5000098;28;20372;-80
2022/07/20 01:18:33;;;;;;;7.80;3.75;;;22.80;61.40;;;;;;5007252;28;20069;-80
2022/07/20 01:21:01;;;;;;;7.85;4.28;;;22.80;61.40;;;;;;4992451;28;20069;-81
2022/07/20 01:23:27;;;;;;;8.70;3.90;;;22.70;61.60;;;;;;5008112;28;20522;-80
2022/07/20 01:25:57;;;;;;;7.55;3.72;;;22.70;61.80;;;;;;5008830;28;20041;-80
2022/07/20 01:28:28;;;;;;;6.18;4.30;;;22.70;62.10;;;;;;4990380;28;20508;-80
2022/07/20 01:30:54;;;;;;;5.90;3.97;;;22.60;62.20;;;;;;4997219;28;20081;-80
2022/07/20 01:33:20;;;;;;;7.72;4.18;;;22.60;62.30;;;;;;5017134;28;20112;-81
2022/07/20 01:35:46;;;;;;;7.72;3.80;;;22.60;62.40;;;;;;5014107;28;20091;-81
2022/07/20 01:38:11;;;;;;;6.45;3.90;;;22.60;62.40;;;;;;5020459;28;20041;-81
2022/07/20 01:40:37;;;;;;;6.97;4.10;;;22.60;62.50;;;;;;5009348;28;20029;-81
2022/07/20 01:43:03;;;;;;;6.40;4.05;;;22.60;62.50;;;;;;5007937;28;20128;-80
2022/07/20 01:45:29;;;;;;;6.75;3.97;;;22.60;62.50;;;;;;5010426;28;20092;-81
2022/07/20 01:47:55;;;;;;;8.90;4.10;;;22.50;62.50;;;;;;5001355;28;20049;-80
2022/07/20 01:50:21;;;;;;;4.40;3.70;;;22.50;62.70;;;;;;5014798;28;20489;-80
2022/07/20 01:52:47;;;;;;;7.88;4.00;;;22.50;62.70;;;;;;4979876;28;20049;-81
2022/07/20 01:55:12;;;;;;;6.88;4.18;;;22.50;62.80;;;;;;5000481;28;20340;-80
2022/07/20 01:57:38;;;;;;;6.72;4.13;;;22.40;62.80;;;;;;5018573;28;20048;-81
2022/07/20 02:00:07;;;;;;;5.68;3.90;;;22.40;62.80;;;;;;4993410;28;20038;-81
2022/07/20 02:02:32;;;;;;;6.40;4.05;;;22.40;62.90;;;;;;5014639;28;20145;-80
2022/07/20 02:04:59;;;;;;;6.53;3.72;;;22.40;63.10;;;;;;4985022;28;20548;-81
2022/07/20 02:07:24;;;;;;;6.07;3.78;;;22.40;63.20;;;;;;5002239;28;20064;-80
2022/07/20 02:09:50;;;;;;;9.27;4.13;;;22.30;63.20;;;;;;5002872;28;20128;-81
2022/07/20 02:12:16;;;;;;;6.40;4.03;;;22.30;63.20;;;;;;4998044;28;20099;-81
2022/07/20 02:14:41;;;;;;;7.10;4.07;;;22.30;63.40;;;;;;5022274;28;20052;-80
2022/07/20 02:17:07;;;;;;;7.63;4.10;;;22.30;63.50;;;;;;4996668;28;20060;-81
2022/07/20 02:19:33;;;;;;;7.97;4.07;;;22.20;63.70;;;;;;5008738;28;20111;-80
2022/07/20 02:21:59;;;;;;;7.03;3.60;;;22.20;63.80;;;;;;5015658;28;20053;-80
2022/07/20 02:24:25;;;;;;;6.63;3.95;;;22.20;64.00;;;;;;5008747;28;20060;-80
2022/07/20 02:26:51;;;;;;;5.72;4.43;;;22.10;64.30;;;;;;5036147;28;20042;-80
2022/07/20 02:29:19;;;;;;;6.30;4.20;;;22.10;64.70;;;;;;5013141;28;20053;-80
2022/07/20 02:31:45;;;;;;;7.75;3.95;;;22.00;64.80;;;;;;4992105;28;20056;-80
2022/07/20 02:34:13;;;;;;;8.80;4.47;;;22.00;65.00;;;;;;5014364;28;20046;-80
2022/07/20 02:36:39;;;;;;;7.25;4.43;;;21.90;65.20;;;;;;5011489;28;20103;-80
2022/07/20 02:39:05;;;;;;;7.22;4.20;;;21.90;65.10;;;;;;5001712;28;20049;-80
2022/07/20 02:41:32;;;;;;;5.70;4.22;;;21.80;65.00;;;;;;5022863;28;20073;-80
2022/07/20 02:43:58;;;;;;;6.50;4.20;;;21.80;65.10;;;;;;5007545;28;20506;-79
2022/07/20 02:46:24;;;;;;;10.52;4.68;;;21.70;65.60;;;;;;4985410;28;20054;-80
2022/07/20 02:48:50;;;;;;;8.45;4.00;;;21.70;65.90;;;;;;5019342;28;20500;-80
2022/07/20 02:51:16;;;;;;;5.65;3.92;;;21.70;65.90;;;;;;4988489;28;20763;-80
2022/07/20 02:53:42;;;;;;;5.57;4.18;;;21.60;66.00;;;;;;5013684;28;20565;-80
2022/07/20 02:56:08;;;;;;;7.55;4.25;;;21.60;66.20;;;;;;5003560;28;20086;-80
2022/07/20 02:58:34;;;;;;;5.72;4.22;;;21.50;66.60;;;;;;5002542;28;20145;-80
2022/07/20 03:01:03;;;;;;;7.65;4.40;;;21.50;66.70;;;;;;4999351;28;20052;-80
2022/07/20 03:03:28;;;;;;;6.55;4.47;;;21.50;67.10;;;;;;5010229;28;20037;-80
2022/07/20 03:05:54;;;;;;;5.63;4.43;;;21.40;67.00;;;;;;4998012;28;20455;-80
2022/07/20 03:08:20;;;;;;;6.53;3.97;;;21.40;66.90;;;;;;5017717;28;20788;-80
2022/07/20 03:10:46;;;;;;;6.25;4.00;;;21.30;67.20;;;;;;5015141;28;20041;-80
2022/07/20 03:13:12;;;;;;;8.13;5.13;;;21.30;67.60;;;;;;5017065;28;20434;-80
2022/07/20 03:15:40;;;;;;;5.20;3.80;;;21.20;67.70;;;;;;5035805;28;20037;-80
2022/07/20 03:18:06;;;;;;;6.30;4.22;;;21.20;67.80;;;;;;4998635;28;20091;-80
2022/07/20 03:20:33;;;;;;;9.00;4.22;;;21.20;68.00;;;;;;4994374;28;20042;-80
2022/07/20 03:22:59;;;;;;;6.80;3.97;;;21.10;68.30;;;;;;5014127;28;20480;-80
2022/07/20 03:25:25;;;;;;;7.57;4.07;;;21.20;68.60;;;;;;5010642;28;20050;-80
2022/07/20 03:27:53;;;;;;;6.03;4.53;;;21.10;69.10;;;;;;5019489;28;20042;-80
2022/07/20 03:30:20;;;;;;;7.22;4.50;;;21.10;69.20;;;;;;5010562;28;20269;-80
2022/07/20 03:32:46;;;;;;;8.27;4.60;;;21.00;68.90;;;;;;4994022;28;20057;-80
2022/07/20 03:35:12;;;;;;;7.13;4.53;;;21.00;68.80;;;;;;5016540;28;20062;-80
2022/07/20 03:37:38;;;;;;;7.57;4.25;;;21.00;69.10;;;;;;5013776;28;20041;-80
2022/07/20 03:40:05;;;;;;;5.32;4.40;;;21.00;69.40;;;;;;5011729;28;20434;-80
2022/07/20 03:42:34;;;;;;;8.00;4.53;;;21.00;70.00;;;;;;5012285;28;20042;-80
2022/07/20 03:45:03;;;;;;;5.55;4.07;;;21.00;70.00;;;;;;5009948;28;20070;-79
2022/07/20 03:47:33;;;;;;;8.95;4.95;;;21.00;70.10;;;;;;5018831;28;20064;-80
2022/07/20 03:49:59;;;;;;;7.13;4.18;;;21.00;70.30;;;;;;4995955;28;20060;-80
2022/07/20 03:52:25;;;;;;;8.13;4.80;;;21.00;70.50;;;;;;5003019;28;20057;-80
2022/07/20 03:54:51;;;;;;;6.82;4.57;;;21.00;70.00;;;;;;5001640;28;20550;-79
2022/07/20 03:57:17;;;;;;;6.72;4.40;;;20.90;70.10;;;;;;5000328;28;20469;-80
2022/07/20 03:59:43;;;;;;;8.55;5.28;;;21.00;70.20;;;;;;4996547;28;20041;-80
2022/07/20 04:02:09;;;;;;;6.55;4.57;;;21.00;70.20;;;;;;5022752;28;20044;-80
2022/07/20 04:04:34;;;;;;;7.95;4.72;;;21.00;70.80;;;;;;5006606;28;20489;-80
2022/07/20 04:07:00;;;;;;;8.48;4.65;;;21.00;71.00;;;;;;5018184;28;20409;-80
2022/07/20 04:09:44;;;;;;;6.97;4.30;;;20.90;70.90;;;;;;5020810;28;20084;-80
2022/07/20 04:12:13;;;;;;;6.13;4.45;;;21.00;71.00;;;;;;5018941;28;20449;-79
2022/07/20 04:14:39;;;;;;;7.00;4.50;;;21.00;71.30;;;;;;5017682;28;20048;-80
2022/07/20 04:17:05;;;;;;;7.10;4.30;;;21.00;71.70;;;;;;4982666;28;20065;-80
2022/07/20 04:19:33;;;;;;;7.65;4.90;;;21.00;71.90;;;;;;5016488;28;20084;-80
2022/07/20 04:22:01;;;;;;;6.10;4.40;;;21.00;71.80;;;;;;5023035;28;20092;-80
2022/07/20 04:24:27;;;;;;;8.02;4.30;;;21.00;72.00;;;;;;5001503;28;20081;-80
2022/07/20 04:26:53;;;;;;;7.35;4.55;;;21.00;72.20;;;;;;5004933;28;20073;-80
2022/07/20 04:29:21;;;;;;;7.75;4.35;;;21.00;72.50;;;;;;5016390;28;20436;-80
2022/07/20 04:31:46;;;;;;;7.03;4.30;;;21.00;72.70;;;;;;5012768;28;20091;-80
2022/07/20 04:34:12;;;;;;;7.30;4.72;;;21.00;73.20;;;;;;5019765;28;20863;-80
2022/07/20 04:36:38;;;;;;;5.70;4.47;;;21.10;73.10;;;;;;5003523;28;20049;-80
2022/07/20 04:39:04;;;;;;;6.53;4.93;;;21.10;73.40;;;;;;5006398;28;20065;-80
2022/07/20 04:41:30;;;;;;;10.23;4.80;;;21.10;73.30;;;;;;5009765;28;20053;-79
2022/07/20 04:43:56;;;;;;;8.23;4.35;;;21.20;73.00;;;;;;5002519;28;20668;-80
2022/07/20 04:46:25;;;;;;;8.38;5.07;;;21.20;73.80;;;;;;4999041;28;20058;-80
2022/07/20 04:48:50;;;;;;;8.00;4.80;;;21.20;73.40;;;;;;4993567;28;20436;-80
2022/07/20 04:51:17;;;;;;;8.68;4.97;;;21.30;73.80;;;;;;5014449;28;20305;-79
2022/07/20 04:53:43;;;;;;;10.23;4.72;;;21.30;73.90;;;;;;5025029;28;20049;-80
2022/07/20 04:56:09;;;;;;;8.65;4.50;;;21.40;73.60;;;;;;4999375;28;20054;-80
2022/07/20 04:58:35;;;;;;;5.88;3.97;;;21.40;73.90;;;;;;4985340;28;20045;-80
2022/07/20 05:01:01;;;;;;;7.00;4.40;;;21.50;75.20;;;;;;5019901;28;20076;-80
2022/07/20 05:03:27;;;;;;;9.73;5.47;;;21.50;74.30;;;;;;5025610;28;20073;-81
2022/07/20 05:05:53;;;;;;;8.82;4.78;;;21.50;75.20;;;;;;5023909;28;20694;-80
2022/07/20 05:08:19;;;;;;;10.63;4.85;;;21.60;75.00;;;;;;5023669;28;20500;-81
2022/07/20 05:10:45;;;;;;;7.80;4.93;;;21.60;75.30;;;;;;5025267;28;20052;-81
2022/07/20 05:13:12;;;;;;;9.30;4.43;;;21.70;75.60;;;;;;5013071;28;20042;-81
2022/07/20 05:15:38;;;;;;;8.73;4.70;;;21.70;75.90;;;;;;5018957;28;20045;-80
2022/07/20 05:18:04;;;;;;;8.23;5.00;;;21.70;75.90;;;;;;5040797;28;20052;-81
2022/07/20 05:20:30;;;;;;;12.52;5.32;;;21.70;75.90;;;;;;5023721;28;20052;-81
2022/07/20 05:22:56;;;;;;;9.82;4.55;;;21.80;75.30;;;;;;5001518;28;20511;-81
2022/07/20 05:25:21;;;;;;;9.57;4.85;;;21.80;75.10;;;;;;5008141;28;20048;-80
2022/07/20 05:27:47;;;;;;;8.38;4.78;;;21.90;74.90;;;;;;5024258;28;20038;-80
2022/07/20 05:30:13;;;;;;;8.73;4.88;;;21.90;74.50;;;;;;4992209;28;20056;-81
2022/07/20 05:32:39;;;;;;;8.57;4.82;;;22.00;74.20;;;;;;5008249;28;20127;-80
2022/07/20 05:35:08;;;;;;;6.00;4.63;;;22.10;74.10;;;;;;4990032;28;20050;-80
2022/07/20 05:37:34;;;;;;;8.70;4.88;;;22.10;73.60;;;;;;5003240;28;20049;-81
2022/07/20 05:40:00;;;;;;;8.30;4.95;;;22.20;74.40;;;;;;5020337;28;20045;-81
2022/07/20 05:42:26;;;;;;;7.88;4.40;;;22.20;74.30;;;;;;4992490;28;20050;-81
2022/07/20 05:44:51;;;;;;;7.38;4.57;;;22.30;74.10;;;;;;4991096;28;20564;-81
2022/07/20 05:47:17;;;;;;;8.23;4.75;;;22.40;73.80;;;;;;5018303;28;20049;-81
2022/07/20 05:49:47;;;;;;;7.53;4.85;;;22.40;73.30;;;;;;4987112;28;20034;-81
2022/07/20 05:52:14;;;;;;;9.93;4.68;;;22.50;73.10;;;;;;4999568;28;20049;-81
2022/07/20 05:54:40;;;;;;;7.00;4.88;;;22.50;73.20;;;;;;5011415;28;20076;-80
2022/07/20 05:57:05;;;;;;;8.48;5.00;;;22.60;72.90;;;;;;5024666;28;20522;-80
2022/07/20 05:59:31;;;;;;;7.53;4.72;;;22.70;72.90;;;;;;5022482;28;20532;-80
2022/07/20 06:01:57;;;;;;;7.97;5.25;;;22.70;73.50;;;;;;5009159;28;20351;-81
2022/07/20 06:04:23;;;;;;;8.48;5.00;;;22.70;73.30;;;;;;5021723;28;20037;-80
2022/07/20 06:06:49;;;;;;;8.43;4.57;;;22.70;73.50;;;;;;5024807;28;20048;-80
2022/07/20 06:09:15;;;;;;;6.25;4.50;;;22.80;73.90;;;;;;5006926;28;20056;-76
2022/07/20 06:11:41;;;;;;;10.30;4.57;;;22.90;74.50;;;;;;5011568;28;20041;-76
2022/07/20 06:14:06;;;;;;;11.52;5.47;;;22.90;74.50;;;;;;5023525;28;20037;-76
2022/07/20 06:16:32;;;;;;;9.20;5.03;;;22.90;74.30;;;;;;5003249;28;20046;-76
2022/07/20 06:18:58;;;;;;;8.00;4.72;;;23.00;74.70;;;;;;5009067;28;20411;-76
2022/07/20 06:21:24;;;;;;;7.95;4.88;;;23.00;74.50;;;;;;4992330;28;20049;-80
2022/07/20 06:23:49;;;;;;;10.70;5.40;;;23.10;74.40;;;;;;5019964;28;20400;-80
2022/07/20 06:26:15;;;;;;;10.07;5.32;;;23.20;75.30;;;;;;5005370;28;20057;-80
2022/07/20 06:28:41;;;;;;;7.75;4.60;;;23.30;75.40;;;;;;4995883;28;20069;-79
2022/07/20 06:31:07;;;;;;;6.68;5.13;;;23.40;75.60;;;;;;5011285;28;20073;-79
2022/07/20 06:33:33;;;;;;;6.97;4.85;;;23.50;75.10;;;;;;4999011;28;20091;-80
2022/07/20 06:36:00;;;;;;;8.75;4.90;;;23.50;74.90;;;;;;5014343;28;20045;-79
2022/07/20 06:38:26;;;;;;;7.47;4.97;;;23.60;75.20;;;;;;4993974;28;20054;-79
2022/07/20 06:40:52;;;;;;;10.30;5.18;;;23.70;74.70;;;;;;4997404;28;20033;-80
2022/07/20 06:43:17;;;;;;;8.65;4.80;;;23.90;75.00;;;;;;5016418;28;20045;-80
2022/07/20 06:45:43;;;;;;;8.77;4.75;;;23.90;74.60;;;;;;4997878;28;20759;-79
2022/07/20 06:48:09;;;;;;;13.93;5.43;;;24.10;74.20;;;;;;4990135;28;20073;-80
2022/07/20 06:50:35;;;;;;;14.27;5.60;;;24.20;72.40;;;;;;4982046;28;20144;-78
2022/07/20 06:53:01;;;;;;;7.25;5.00;;;24.40;69.50;;;;;;5011128;28;20124;-79
2022/07/20 06:55:26;;;;;;;9.15;5.57;;;24.60;68.20;;;;;;4992513;28;20106;-79
2022/07/20 06:57:52;;;;;;;7.40;5.07;;;24.70;67.90;;;;;;4995839;28;20507;-79
2022/07/20 07:00:18;;;;;;;11.65;6.03;;;24.90;67.80;;;;;;4999206;28;20046;-75
2022/07/20 07:02:44;;;;;;;9.75;5.60;;;25.00;67.80;;;;;;5015023;28;20061;-75
2022/07/20 07:05:10;;;;;;;12.02;5.53;;;25.10;67.00;;;;;;4976173;28;20057;-75
2022/07/20 07:07:36;;;;;;;11.35;6.10;;;25.20;66.50;;;;;;5015886;28;20045;-75
2022/07/20 07:10:09;;;;;;;8.98;5.90;;;25.30;66.50;;;;;;5001377;28;20090;-75
2022/07/20 07:12:34;;;;;;;9.18;6.40;;;25.30;66.30;;;;;;5001680;28;20076;-79
2022/07/20 07:15:01;;;;;;;13.13;6.97;;;25.50;66.80;;;;;;5017678;28;20079;-80
2022/07/20 07:17:27;;;;;;;11.88;6.90;;;25.50;66.50;;;;;;4993535;28;20069;-78
2022/07/20 07:19:53;;;;;;;14.68;6.35;;;25.70;67.20;;;;;;4995669;28;20879;-80
2022/07/20 07:22:19;;;;;;;12.85;7.30;;;25.70;67.30;;;;;;5016033;28;20054;-79
2022/07/20 07:24:45;;;;;;;11.70;7.75;;;25.90;67.80;;;;;;4979833;28;20052;-80
2022/07/20 07:27:10;;;;;;;9.30;7.35;;;26.00;68.50;;;;;;5016374;28;20396;-80
2022/07/20 07:29:36;;;;;;;12.25;8.60;;;26.10;69.30;;;;;;5017262;28;20053;-79
2022/07/20 07:32:02;;;;;;;12.13;8.18;;;26.30;69.50;;;;;;5015092;28;20046;-79
2022/07/20 07:34:28;;;;;;;11.75;9.20;;;26.40;69.20;;;;;;4986013;28;20046;-80
2022/07/20 07:36:55;;;;;;;15.85;9.30;;;26.50;69.70;;;;;;5016380;28;20087;-80
2022/07/20 07:39:21;;;;;;;11.63;8.95;;;26.70;69.90;;;;;;4994304;28;20088;-79
2022/07/20 07:41:47;;;;;;;24.23;10.88;;;26.80;70.20;;;;;;4988236;28;20048;-79
2022/07/20 07:44:13;;;;;;;20.63;9.75;;;26.90;70.60;;;;;;5002922;28;20046;-78
2022/07/20 07:46:39;;;;;;;11.73;8.90;;;26.90;69.60;;;;;;5012808;28;20536;-78
2022/07/20 07:49:04;;;;;;;19.40;9.48;;;27.00;69.10;;;;;;5017136;28;20049;-80
2022/07/20 07:51:30;;;;;;;15.27;9.35;;;27.00;69.60;;;;;;5008912;28;20341;-78
2022/07/20 07:53:56;;;;;;;12.63;8.90;;;27.10;70.40;;;;;;5022682;28;20063;-75
2022/07/20 07:56:25;;;;;;;13.70;10.18;;;27.30;71.20;;;;;;5013173;28;20419;-75
2022/07/20 07:58:51;;;;;;;16.90;12.70;;;27.40;72.20;;;;;;5002001;28;20044;-75
2022/07/20 08:01:17;;;;;;;18.30;14.73;;;27.50;73.30;;;;;;5015024;28;20400;-74
2022/07/20 08:03:43;;;;;;;19.70;14.55;;;27.60;73.30;;;;;;4999047;28;20504;-75
2022/07/20 08:06:09;;;;;;;19.55;15.77;;;27.70;74.60;;;;;;4999754;28;20129;-74
2022/07/20 08:08:35;;;;;;;17.58;15.57;;;27.70;76.10;;;;;;5005279;28;20044;-74
2022/07/20 08:11:01;;;;;;;24.40;17.60;;;27.80;76.00;;;;;;4998794;28;20037;-75
2022/07/20 08:13:27;;;;;;;20.08;15.95;;;27.90;75.80;;;;;;5015731;28;20420;-74
2022/07/20 08:15:53;;;;;;;18.92;15.90;;;27.90;76.40;;;;;;5000245;28;20044;-75
2022/07/20 08:18:25;;;;;;;20.73;17.33;;;28.00;76.60;;;;;;4991828;28;20049;-74
2022/07/20 08:20:51;;;;;;;27.80;17.60;;;28.00;77.70;;;;;;4992759;28;20054;-74
2022/07/20 08:23:17;;;;;;;25.33;17.55;;;28.10;77.80;;;;;;5012812;28;20056;-76
2022/07/20 08:25:44;;;;;;;24.75;16.73;;;28.20;78.00;;;;;;5015133;28;20045;-79
2022/07/20 08:28:14;;;;;;;34.47;18.88;;;28.20;78.20;;;;;;4992903;28;20472;-79
2022/07/20 08:30:42;;;;;;;22.23;16.65;;;28.30;78.50;;;;;;5014253;28;20053;-80
2022/07/20 08:33:09;;;;;;;21.50;18.58;;;28.40;78.70;;;;;;5012302;28;20050;-80
2022/07/20 08:35:35;;;;;;;19.65;17.17;;;28.50;79.20;;;;;;5002132;28;20571;-78
2022/07/20 08:38:01;;;;;;;22.52;18.83;;;28.60;80.80;;;;;;4981483;28;20046;-79
2022/07/20 08:40:28;;;;;;;25.48;19.95;;;28.70;80.20;;;;;;5022389;28;20108;-79
2022/07/20 08:42:54;;;;;;;27.02;21.48;;;28.70;81.10;;;;;;5001435;28;20050;-78
2022/07/20 08:45:20;;;;;;;25.27;22.58;;;28.70;81.00;;;;;;5010686;28;20175;-78
2022/07/20 08:47:49;;;;;;;26.30;22.85;;;28.70;81.50;;;;;;5016960;28;20125;-78
2022/07/20 08:50:22;;;;;;;27.42;22.60;;;28.70;82.20;;;;;;5018342;28;20135;-74
2022/07/20 08:52:52;;;;;;;24.75;22.23;;;28.70;82.40;;;;;;5013382;28;20049;-74
2022/07/20 08:55:19;;;;;;;23.95;21.05;;;28.80;82.40;;;;;;4999160;28;20048;-73
2022/07/20 08:57:45;;;;;;;23.67;20.50;;;28.90;82.90;;;;;;5003343;28;20268;-79
2022/07/20 09:00:12;;;;;;;23.98;21.25;;;29.00;84.90;;;;;;5011260;28;20049;-80
2022/07/20 09:03:01;;;;;;;25.98;22.75;;;29.20;83.00;;;;;;4987524;28;20088;-78
2022/07/20 09:05:30;;;;;;;28.70;22.65;;;29.30;81.70;;;;;;5013809;28;20038;-78
2022/07/20 09:08:00;;;;;;;25.92;21.95;;;29.20;80.20;;;;;;4998932;28;20096;-78
2022/07/20 09:10:34;;;;;;;27.58;22.05;;;29.20;78.70;;;;;;5014674;28;20041;-78
2022/07/20 09:13:07;;;;;;;30.58;23.00;;;29.30;77.80;;;;;;5001747;28;20049;-78
2022/07/20 09:15:38;;;;;;;27.23;22.13;;;29.20;78.10;;;;;;5016284;28;20101;-79
2022/07/20 09:18:21;;;;;;;27.08;22.88;;;29.30;78.10;;;;;;5013634;28;20441;-79
2022/07/20 09:20:47;;;;;;;28.45;23.52;;;29.30;77.80;;;;;;4994457;28;20073;-80
2022/07/20 09:23:44;;;;;;;28.83;24.33;;;29.50;77.40;;;;;;4997579;28;20127;-79
2022/07/20 09:26:10;;;;;;;30.73;27.30;;;29.60;77.30;;;;;;5008676;28;20528;-77
2022/07/20 09:28:39;;;;;;;29.08;25.73;;;29.60;77.00;;;;;;5017885;28;20056;-80
2022/07/20 09:31:12;;;;;;;29.13;24.45;;;29.60;77.80;;;;;;5000947;28;20044;-80
2022/07/20 09:33:37;;;;;;;29.75;24.60;;;29.70;78.40;;;;;;5002888;28;20060;-79
2022/07/20 09:36:05;;;;;;;28.08;25.02;;;29.70;76.30;;;;;;5003563;28;20045;-74
2022/07/20 09:38:35;;;;;;;28.00;24.80;;;29.70;76.90;;;;;;5006944;28;20041;-80
2022/07/20 09:41:07;;;;;;;28.70;25.67;;;29.80;76.60;;;;;;5021059;28;20046;-80
2022/07/20 09:43:36;;;;;;;28.08;24.13;;;29.90;75.70;;;;;;5008191;28;20053;-80
2022/07/20 09:46:26;;;;;;;30.67;25.45;;;30.00;73.70;;;;;;5014035;28;20504;-78
2022/07/20 09:48:55;;;;;;;26.80;23.92;;;30.00;72.30;;;;;;5019533;28;20045;-79
2022/07/20 09:51:24;;;;;;;27.95;23.20;;;29.90;73.40;;;;;;5021152;28;20064;-80
2022/07/20 09:53:55;;;;;;;26.33;22.50;;;29.90;73.10;;;;;;5023000;28;20087;-80
2022/07/20 09:56:21;;;;;;;25.55;22.98;;;30.00;72.80;;;;;;5006386;28;20308;-80
2022/07/20 09:58:50;;;;;;;24.65;22.15;;;30.10;72.60;;;;;;5007546;28;20038;-79
2022/07/20 10:01:27;;;;;;;25.35;20.98;;;30.30;72.60;;;;;;5020672;28;20538;-78
2022/07/20 10:03:56;;;;;;;25.13;21.27;;;30.40;70.70;;;;;;5016826;28;20041;-80
2022/07/20 10:06:24;;;;;;;22.85;20.60;;;30.40;71.80;;;;;;5021915;28;20054;-78
2022/07/20 10:08:50;;;;;;;24.40;19.85;;;30.40;71.90;;;;;;5006811;28;20455;-79
2022/07/20 10:11:18;;;;;;;21.50;19.25;;;30.50;71.80;;;;;;5021688;28;20675;-79
2022/07/20 10:13:45;;;;;;;21.40;19.20;;;30.60;70.40;;;;;;5015737;28;20052;-74
2022/07/20 10:16:36;;;;;;;22.90;18.65;;;30.60;70.90;;;;;;5020700;28;20053;-74
2022/07/20 10:19:04;;;;;;;19.55;17.10;;;30.70;71.20;;;;;;5022030;28;20353;-75
2022/07/20 10:21:47;;;;;;;19.73;16.85;;;30.70;70.50;;;;;;5003224;28;20404;-74
2022/07/20 10:24:30;;;;;;;18.55;15.85;;;30.80;67.50;;;;;;4987408;28;20161;-75
2022/07/20 10:27:02;;;;;;;18.10;15.40;;;30.80;65.60;;;;;;5017081;28;20050;-75
2022/07/20 10:29:39;;;;;;;18.05;16.15;;;30.90;65.20;;;;;;5016478;28;20075;-75
2022/07/20 10:32:14;;;;;;;17.75;15.68;;;30.90;63.00;;;;;;5013404;28;20057;-74
2022/07/20 10:34:39;;;;;;;17.35;15.55;;;30.90;62.70;;;;;;5011549;28;20041;-76
2022/07/20 10:37:23;;;;;;;18.17;14.57;;;30.90;63.80;;;;;;5017752;28;20620;-78
2022/07/20 10:39:50;;;;;;;17.73;15.82;;;31.00;64.50;;;;;;5003193;28;20128;-78
2022/07/20 10:42:20;;;;;;;19.38;16.13;;;31.00;65.30;;;;;;5004927;28;20053;-78
2022/07/20 10:44:45;;;;;;;;;;;31.10;64.30;;;;;;5020141;28;20095;-77
2022/07/20 10:47:40;;;;;;;15.63;14.05;;;31.20;63.20;;;;;;5009990;28;19921;-77
2022/07/20 10:50:06;;;;;;;15.57;13.43;;;31.20;63.60;;;;;;5034162;28;20046;-77
2022/07/20 10:52:35;;;;;;;18.27;14.27;;;31.20;63.60;;;;;;5007704;28;20937;-78
2022/07/20 10:55:03;;;;;;;15.38;12.80;;;31.30;62.70;;;;;;5021456;28;20041;-80
2022/07/20 10:57:31;;;;;;;14.35;12.95;;;31.30;62.60;;;;;;5013765;28;20424;-79
2022/07/20 11:00:14;;;;;;;15.23;12.00;;;31.30;61.90;;;;;;5014411;28;20149;-79
2022/07/20 11:02:41;;;;;;;18.05;13.75;;;31.30;62.00;;;;;;5006928;28;20065;-79
2022/07/20 11:05:19;;;;;;;18.38;13.90;;;31.30;63.00;;;;;;5002367;28;20069;-79
2022/07/20 11:07:45;;;;;;;14.45;12.95;;;31.40;63.80;;;;;;5017302;28;20045;-79
2022/07/20 11:10:27;;;;;;;16.45;11.90;;;31.40;63.10;;;;;;5008078;28;20684;-79
2022/07/20 11:12:58;;;;;;;13.77;11.20;;;31.40;63.00;;;;;;4999125;28;20065;-75
2022/07/20 11:15:51;;;;;;;13.82;11.60;;;31.60;60.70;;;;;;5017999;28;20099;-79
2022/07/20 11:18:20;;;;;;;12.93;11.50;;;31.70;60.30;;;;;;5013314;28;20085;-79
2022/07/20 11:20:51;;;;;;;12.65;11.45;;;31.70;59.90;;;;;;5006097;28;20050;-79
2022/07/20 11:23:23;;;;;;;13.07;11.70;;;31.80;60.10;;;;;;5008062;28;20050;-79
2022/07/20 11:25:58;;;;;;;14.13;11.48;;;31.80;61.50;;;;;;5018571;28;20460;-78
2022/07/20 11:28:27;;;;;;;18.42;11.73;;;31.70;61.20;;;;;;5016520;28;20479;-76
2022/07/20 11:30:55;;;;;;;13.80;11.23;;;31.70;61.30;;;;;;5005525;28;20045;-75
2022/07/20 11:33:25;;;;;;;16.45;10.30;;;31.70;62.00;;;;;;5016136;28;20053;-79
2022/07/20 11:35:51;;;;;;;14.23;9.80;;;31.80;61.10;;;;;;5008509;28;20057;-80
2022/07/20 11:38:17;;;;;;;10.80;9.65;;;31.90;59.90;;;;;;5009390;28;20053;-79
2022/07/20 11:40:59;;;;;;;11.55;9.05;;;31.90;58.90;;;;;;4990747;28;20041;-79
2022/07/20 11:43:25;;;;;;;11.63;9.80;;;31.90;59.50;;;;;;5001794;28;20049;-76
2022/07/20 11:45:51;;;;;;;12.80;9.13;;;31.90;55.60;;;;;;5026614;28;20599;-77
2022/07/20 11:48:24;;;;;;;12.52;9.93;;;31.80;55.40;;;;;;4989381;28;20710;-79
2022/07/20 11:50:53;;;;;;;11.40;10.07;;;31.70;56.50;;;;;;5016485;28;20068;-79
2022/07/20 11:53:26;;;;;;;11.20;10.02;;;31.70;58.00;;;;;;5003044;28;20050;-80
2022/07/20 11:55:56;;;;;;;12.25;9.45;;;31.70;57.00;;;;;;5014663;28;20544;-79
2022/07/20 11:58:37;;;;;;;12.57;9.30;;;31.90;57.10;;;;;;5020146;28;20041;-79
2022/07/20 12:01:06;;;;;;;10.70;9.05;;;31.90;55.40;;;;;;5020254;28;20072;-79
2022/07/20 12:03:39;;;;;;;;;;;32.00;55.70;;;;;;5017184;28;20540;-79
2022/07/20 12:06:12;;;;;;;10.13;8.35;;;32.20;56.20;;;;;;5015210;28;19966;-79
2022/07/20 12:08:40;;;;;;;13.98;8.70;;;32.10;54.50;;;;;;5011849;28;20087;-78
2022/07/20 12:11:07;;;;;;;11.68;9.20;;;32.00;53.00;;;;;;5019603;28;20053;-77
2022/07/20 12:13:51;;;;;;;9.85;7.88;;;31.90;53.10;;;;;;5012668;28;20048;-76
2022/07/20 12:16:19;;;;;;;12.60;8.80;;;31.90;55.70;;;;;;5013196;28;20123;-76
2022/07/20 12:18:51;;;;;;;12.57;8.77;;;31.90;57.20;;;;;;5005831;28;20045;-78
2022/07/20 12:21:26;;;;;;;12.60;8.73;;;32.00;56.00;;;;;;5005848;28;20045;-76
2022/07/20 12:23:53;;;;;;;13.88;9.18;;;32.00;57.70;;;;;;4998086;28;20038;-78
2022/07/20 12:26:27;;;;;;;11.95;9.00;;;32.00;57.20;;;;;;5002267;28;20049;-78
2022/07/20 12:29:16;;;;;;;11.52;8.43;;;31.90;57.80;;;;;;5019070;28;20445;-78
2022/07/20 12:31:42;;;;;;;8.57;7.65;;;31.90;57.50;;;;;;5016202;28;20052;-78
2022/07/20 12:34:13;;;;;;;10.63;7.68;;;31.90;57.90;;;;;;5004734;28;20044;-77
2022/07/20 12:36:45;;;;;;;20.90;8.18;;;31.90;57.10;;;;;;5012189;28;20077;-76
2022/07/20 12:39:41;;;;;;;10.57;7.38;;;32.00;56.90;;;;;;5015054;28;20041;-77
2022/07/20 12:42:29;;;;;;;8.93;7.30;;;32.00;56.20;;;;;;5011465;28;20050;-78
2022/07/20 12:45:06;;;;;;;11.15;7.63;;;32.00;57.20;;;;;;5001508;28;20057;-79
2022/07/20 12:47:38;;;;;;;9.88;7.82;;;32.10;57.00;;;;;;5032093;28;20052;-77
2022/07/20 12:50:06;;;;;;;9.73;7.13;;;32.30;56.70;;;;;;5002744;28;20041;-78